Track Екишев Евгений

Time Latitude Longitude Accuracy (66% radius in meters) Altitude (meters) Speed (km/hour) Bearing (degrees) Battery (%) GPS flag
02:43:38 0.000000 0.000000 0 0 0 0 1 0 delete
02:43:28 0.000000 0.000000 0 0 0 0 1 0 delete
13:21:49 56.387622 43.737142 3 86.199996948242 0 0 5 1 delete
13:21:38 56.387622 43.737142 3 86.300003051758 0 0 5 1 delete
13:21:26 56.387622 43.737142 3 86.300003051758 0 0 5 1 delete
13:21:15 56.387622 43.737142 3 86.300003051758 0 0 5 1 delete
13:21:03 56.387622 43.737142 3 86.300003051758 0 0 5 1 delete
13:20:51 56.387622 43.737141 3 86.300003051758 0 0 5 1 delete
13:20:40 56.387622 43.737141 3 86.300003051758 0 0 5 1 delete
13:20:29 56.387622 43.737141 3 86.300003051758 0 0 5 1 delete
13:20:17 56.387622 43.737141 3 86.300003051758 0 0 5 1 delete
13:20:06 56.387622 43.737141 3 86.300003051758 0 0 5 1 delete
13:19:54 56.387622 43.737141 3 86.300003051758 0 0 5 1 delete
13:19:43 56.387622 43.737141 3 86.300003051758 0 0 5 1 delete
13:19:31 56.387622 43.737141 3 86.199996948242 0 0 5 1 delete
13:19:20 56.387622 43.737141 3 86.300003051758 0 0 5 1 delete
13:19:08 56.387622 43.737141 3 86.199996948242 0 0 5 1 delete
13:18:57 56.387622 43.737141 3 86.300003051758 0 0 5 1 delete
13:18:45 56.387622 43.737141 3 86.300003051758 0 0 5 1 delete
13:18:34 56.387621 43.737141 3 86.300003051758 0 0 5 1 delete
13:18:24 56.387621 43.737140 3 86.300003051758 0 0 5 1 delete
13:18:13 56.387621 43.737140 3 86.300003051758 0 0 5 1 delete
13:18:01 56.387621 43.737140 3 86.300003051758 0 0 5 1 delete
13:17:50 56.387621 43.737140 3 86.300003051758 0 0 5 1 delete
13:17:40 56.387621 43.737140 3 86.300003051758 0 0 5 1 delete
13:17:28 56.387621 43.737140 3 86.300003051758 0 0 5 1 delete
13:17:17 56.387621 43.737140 3 86.300003051758 0 0 5 1 delete
13:17:06 56.387621 43.737140 3 86.300003051758 0 0 5 1 delete
13:16:54 56.387621 43.737140 3 86.300003051758 0 0 5 1 delete
13:16:43 56.387621 43.737140 3 86.300003051758 0 0 5 1 delete
13:16:31 56.387621 43.737140 3 86.300003051758 0 0 5 1 delete
13:16:20 56.387621 43.737140 3 86.300003051758 0 0 5 1 delete
13:16:08 56.387621 43.737140 3 86.300003051758 0 0 5 1 delete
13:15:57 56.387621 43.737140 3 86.300003051758 0 0 5 1 delete
13:15:45 56.387621 43.737140 3 86.300003051758 0 0 5 1 delete
13:15:34 56.387621 43.737140 3 86.300003051758 0 0 5 1 delete
13:15:22 56.387621 43.737140 4 86.300003051758 0 0 5 1 delete
13:15:11 56.387621 43.737140 3 86.199996948242 0 0 5 1 delete
13:14:59 56.387621 43.737140 3 86.199996948242 0 0 5 1 delete
13:14:48 56.387621 43.737140 5 86.199996948242 0 0 5 1 delete
13:14:37 56.387621 43.737140 3 86.199996948242 0 0 5 1 delete
13:14:26 56.387621 43.737140 4 86.300003051758 0 0 5 1 delete
13:14:15 56.387621 43.737139 6 86.300003051758 0 0 5 1 delete
13:14:04 56.387621 43.737139 3 86.300003051758 0 0 5 1 delete
13:13:53 56.387621 43.737139 3 86.300003051758 0 0 5 1 delete
13:13:41 56.387621 43.737139 3 86.300003051758 0 0 5 1 delete
13:13:30 56.387621 43.737139 5 86.300003051758 0 0 5 1 delete
13:13:19 56.387621 43.737139 6 86.300003051758 0 0 5 1 delete
13:13:08 56.387621 43.737139 4 86.300003051758 0 0 5 1 delete
13:12:55 56.387621 43.737139 3 86.300003051758 0 0 5 1 delete